Terminal Aerodrome Forecast
Issued by NWS

Home | Current Version | Previous Version | Text Only | Print | Product List | Glossary On
Versions: 1 2 3 4 5 6 7 8 9 10 11 12 13 14 15 16 17 18 19 20 21 22 23 24 25 26
000
FTUS43 KMKX 220847 AAB
TAFUES
TAF AMD
KUES 220847Z 2209/2306 27008KT P6SM BKN015 OVC200
     FM221100 27009KT P6SM SCT015 BKN025 OVC200
     FM221600 30012G18KT P6SM SCT040
     FM230000 31009KT P6SM FEW250=

USA.gov is the U.S. government's official web portal to all federal, state and local government web resources and services.